Latest Weather Observations for Cooma Airport

IDN60801

Issued at 11:05 pm EST Tuesday 22 July 2014 (issued every 30 minutes, with the page automatically refreshed every 10 minutes)

About weather observations | Map of weather stations | Latest weather observations for NSW | Other Formats
Station Details ID: 070217 Name: COOMA AIRPORT AWS Lat: -36.29 Lon: 148.97 Height: 930.0 m
Data from the previous 72 hours. | See also: Recent months for locations in New South Wales
Date/Time
EST
Temp
°C
App
Temp
°C
Dew
Point
Rel
Hum
%
Delta-T
°C
Wind Press
QNH
hPa
Press
MSL
hPa
Rain
since 9 am
mm
Dir
 
Spd
km/h
Gust
km/h
Spd
kts
Gust
kts
22/11:00pm -4.2 -6.8 -5.4 91 0.2 ENE 0 0 0 0 1024.5 - 0.2
22/10:30pm -4.5 -7.2 -6.2 88 0.3 ENE 0 0 0 0 1024.4 - 0.2
22/10:00pm -3.1 -5.6 -4.4 91 0.3 CALM 0 0 0 0 1024.5 - 0.2
22/09:30pm -3.6 -6.2 -5.4 87 0.4 CALM 0 0 0 0 1024.4 - 0.2
22/09:00pm -2.9 -5.5 -4.9 86 0.5 CALM 0 0 0 0 1024.1 1026.1 0.2
22/08:30pm -1.9 -4.4 -3.6 88 0.5 CALM 0 0 0 0 1023.9 - 0.2
22/08:00pm -2.1 -4.6 -4.1 86 0.6 CALM 0 0 0 0 1024.0 - 0.2
22/07:30pm -0.2 -2.8 -4.6 72 1.5 CALM 0 0 0 0 1024.0 - 0.2
22/07:00pm 1.7 -2.0 -2.8 72 1.6 SSW 7 9 4 5 1024.0 - 0.2
22/06:30pm 1.6 -2.9 -3.1 71 1.8 SSW 11 11 6 6 1023.9 - 0.2
22/06:00pm 2.0 -2.1 -2.7 71 1.7 S 9 11 5 6 1023.7 1025.6 0.2
22/05:30pm 2.3 -2.4 -1.8 74 1.5 S 13 13 7 7 1023.4 - 0.2
22/05:00pm 4.6 0.4 -1.2 66 2.3 S 11 13 6 7 1023.0 - 0.2
22/04:30pm 7.3 2.8 -0.2 59 3.1 S 13 15 7 8 1022.9 - 0.2
22/04:00pm 8.4 4.1 -1.4 50 4.0 S 11 15 6 8 1022.8 - 0.2
22/03:30pm 8.5 4.4 -0.5 53 3.7 SSW 11 15 6 8 1022.7 - 0.2
22/03:00pm 8.6 4.9 0.1 55 3.6 SSW 9 13 5 7 1022.5 1024.4 0.2
22/02:30pm 8.8 5.5 0.3 55 3.6 S 7 15 4 8 1022.3 - 0.2
22/02:00pm 8.5 5.4 1.4 61 3.1 SSW 7 13 4 7 1022.5 - 0.2
22/01:30pm 7.6 4.3 0.1 59 3.1 SSW 7 11 4 6 1022.5 - 0.2
22/01:00pm 7.2 4.2 0.6 63 2.8 SSW 6 11 3 6 1022.9 - 0.0
22/12:30pm 6.4 3.3 1.3 70 2.2 S 7 13 4 7 1023.2 - 0.0
22/12:00pm 5.6 2.7 1.3 74 1.8 SSW 6 11 3 6 1023.9 1025.9 0.0
22/11:30am 4.8 2.8 2.5 85 1.0 SSW 2 7 1 4 1024.4 - 0.0
22/11:00am 3.1 1.4 1.9 92 0.5 CALM 0 0 0 0 1024.9 - 0.0
22/10:56am 2.7 1.0 1.8 94 0.4 CALM 0 0 0 0 1025.0 - 0.0
22/10:50am 2.7 1.1 2.4 98 0.1 CALM 0 6 0 3 1025.1 - 0.0
22/10:30am 1.3 -0.9 1.2 99 0.0 NNE 2 7 1 4 1025.1 - 0.0
22/10:00am -0.2 -3.9 -0.3 99 0.0 NNE 9 13 5 7 1025.2 - 0.0
22/09:30am -0.6 -4.4 -0.7 99 0.0 NNE 9 11 5 6 1025.2 - 0.0
22/09:00am -1.2 -5.5 -1.3 99 0.0 NE 11 13 6 7 1025.0 1027.0 0.0
22/08:40am -1.4 -4.9 -1.5 99 0.0 NNE 7 11 4 6 1024.9 - 0.0
22/08:37am -1.6 -5.1 -1.7 99 0.0 NNE 7 7 4 4 1024.9 - 0.0
22/08:30am -2.0 -5.6 -2.1 99 -0.1 NNE 7 9 4 5 1024.8 - 0.0
22/08:27am -2.1 -5.7 -2.2 99 -0.1 NNE 7 9 4 5 1024.6 - 0.0
22/08:26am -2.1 -5.7 -2.2 99 -0.1 NNE 7 9 4 5 1024.6 - 0.0
22/08:00am -3.9 -7.7 -4.0 99 -0.1 N 7 9 4 5 1024.4 - 0.0
22/07:30am -3.4 -7.9 -3.5 99 -0.1 N 11 13 6 7 1024.1 - 0.0
22/07:00am -3.7 -7.9 -3.8 99 -0.1 N 9 11 5 6 1023.7 - 0.0
22/06:30am -4.5 -7.1 -4.6 99 -0.2 CALM 0 0 0 0 1023.5 - 0.0
22/06:02am -5.1 -7.8 -5.6 96 0.0 CALM 0 0 0 0 1023.2 - 0.0
22/06:00am -5.1 -7.8 -5.6 96 0.0 NNE 0 0 0 0 1023.2 1025.2 0.0
22/05:56am -4.9 -7.5 -5.4 96 0.0 CALM 0 0 0 0 1023.1 - 0.0
22/05:36am -4.8 -7.5 -5.5 95 0.0 CALM 0 0 0 0 1023.1 - 0.0
22/05:30am -4.7 -7.4 -5.5 94 0.1 CALM 0 0 0 0 1023.0 - 0.0
22/05:22am -4.7 -7.3 -5.4 95 0.0 CALM 0 0 0 0 1023.0 - 0.0
22/05:12am -4.4 -7.0 -5.1 95 0.0 CALM 0 0 0 0 1023.0 - 0.0
22/05:00am -4.2 -6.8 -4.7 96 0.0 CALM 0 0 0 0 1023.0 - 0.0
22/04:30am -4.0 -6.5 -4.4 97 0.0 CALM 0 0 0 0 1023.1 - 0.0
22/04:25am -4.0 -6.6 -4.5 96 0.0 CALM 0 0 0 0 1023.0 - 0.0
22/04:00am -3.6 -6.1 -4.3 95 0.1 CALM 0 0 0 0 1023.0 - 0.0
22/03:30am -3.3 -5.8 -4.0 95 0.1 CALM 0 0 0 0 1023.1 - 0.0
22/03:00am -3.3 -5.8 -4.3 93 0.2 CALM 0 0 0 0 1023.1 1025.1 0.0
22/02:30am -2.9 -5.3 -3.3 97 0.0 CALM 0 0 0 0 1023.2 - 0.0
22/02:00am -3.2 -5.7 -3.9 95 0.1 CALM 0 0 0 0 1023.2 - 0.0
22/01:30am -2.9 -5.3 -3.2 98 0.0 CALM 0 0 0 0 1023.3 - 0.0
22/01:00am -3.5 -6.0 -3.8 98 -0.1 CALM 0 0 0 0 1023.4 - 0.0
22/12:30am -3.3 -5.8 -4.1 94 0.1 CALM 0 0 0 0 1023.5 - 0.0
22/12:00am -3.4 -5.9 -3.7 98 0.0 S 0 0 0 0 1023.7 1025.6 0.0
 
Date/Time
EST
Temp
°C
App
Temp
°C
Dew
Point
Rel
Hum
%
Delta-T
°C
Wind Press
QNH
hPa
Press
MSL
hPa
Rain
since 9 am
mm
Dir
 
Spd
km/h
Gust
km/h
Spd
kts
Gust
kts
21/11:30pm -3.2 -5.7 -4.0 94 0.1 CALM 0 0 0 0 1023.8 - 0.0
21/11:00pm -3.2 -5.7 -4.2 93 0.2 CALM 0 0 0 0 1024.0 - 0.0
21/10:30pm -2.3 -4.7 -3.0 95 0.1 CALM 0 0 0 0 1024.2 - 0.0
21/10:00pm -2.9 -5.4 -4.3 90 0.3 CALM 0 0 0 0 1024.2 - 0.0
21/09:30pm -2.4 -4.9 -4.0 89 0.4 CALM 0 0 0 0 1024.2 - 0.0
21/09:00pm -0.8 -3.8 -1.8 93 0.3 S 4 7 2 4 1024.2 1026.2 0.0
21/08:30pm -0.8 -3.1 -2.5 88 0.6 CALM 0 0 0 0 1024.1 - 0.0
21/08:00pm 0.0 -2.6 -1.9 87 0.7 SW 2 9 1 5 1023.9 - 0.0
21/07:30pm -0.6 -4.3 -3.1 83 0.9 WSW 7 11 4 6 1023.8 - 0.0
21/07:00pm 1.7 -3.3 -1.2 81 1.1 SW 15 17 8 9 1023.4 - 0.0
21/06:30pm 0.9 -3.4 -1.3 85 0.8 SW 11 13 6 7 1023.2 - 0.0
21/06:00pm 0.9 -3.4 -1.3 85 0.8 SW 11 13 6 7 1023.0 1025.0 0.0
21/05:30pm 3.4 -0.8 -0.8 74 1.6 SW 11 13 6 7 1022.8 - 0.0
21/05:00pm 5.2 0.7 -0.2 68 2.2 SW 13 15 7 8 1022.6 - 0.0
21/04:30pm 7.7 4.6 0.4 60 3.1 E 6 7 3 4 1022.3 - 0.0
21/04:00pm 9.7 6.4 -0.2 50 4.2 NE 7 11 4 6 1022.2 - 0.0
21/03:30pm 10.3 7.6 0.3 50 4.3 ENE 4 7 2 4 1022.1 - 0.0
21/03:00pm 10.4 8.2 1.0 52 4.1 E 2 7 1 4 1022.1 1024.1 0.0
21/02:30pm 9.7 6.6 0.3 52 4.0 E 6 11 3 6 1022.1 - 0.0
21/02:00pm 9.5 6.4 1.4 57 3.5 ENE 7 13 4 7 1022.2 - 0.0
21/01:30pm 8.8 5.3 1.2 59 3.3 NE 9 15 5 8 1022.5 - 0.0
21/01:00pm 8.1 4.3 1.5 63 2.9 NNE 11 17 6 9 1022.8 - 0.0
21/12:30pm 6.6 2.7 1.3 69 2.3 NNE 11 15 6 8 1023.2 - 0.0
21/12:00pm 5.5 0.8 0.7 71 2.0 NE 15 17 8 9 1023.8 1025.8 0.0
21/11:30am 4.3 -0.4 1.0 79 1.4 NE 15 17 8 9 1024.2 - 0.0
21/11:00am 3.5 -1.2 0.9 83 1.1 NE 15 17 8 9 1024.6 - 0.0
21/10:30am 2.6 -1.7 1.0 89 0.6 NE 13 15 7 8 1025.1 - 0.0
21/10:00am 1.2 -3.2 0.6 96 0.2 NNE 13 15 7 8 1025.4 - 0.0
21/09:54am 1.0 -3.4 0.4 96 0.2 NNE 13 15 7 8 1025.4 - 0.0
21/09:34am 0.6 -3.8 0.5 99 0.0 NNE 13 15 7 8 1025.4 - 0.0
21/09:30am 0.4 -4.0 0.3 99 0.0 NNE 13 17 7 9 1025.5 - 0.0
21/09:00am -0.5 -5.4 -0.6 99 0.0 NE 15 17 8 9 1025.5 1027.5 0.0
21/08:30am -1.4 -6.1 -1.5 99 0.0 NE 13 15 7 8 1025.5 - 0.0
21/08:00am -2.0 -6.7 -2.1 99 -0.1 NE 13 15 7 8 1025.4 - 0.0
21/07:30am -2.9 -8.1 -3.0 99 -0.1 NNE 15 17 8 9 1025.3 - 0.0
21/07:00am -3.0 -7.9 -3.1 99 -0.1 NNE 13 15 7 8 1025.1 - 0.0
21/06:30am -3.0 -7.9 -3.1 99 -0.1 NNE 13 15 7 8 1025.1 - 0.0
21/06:00am -2.5 -7.3 -2.6 99 -0.1 NE 13 15 7 8 1025.0 1027.0 0.0
21/05:53am -2.4 -7.2 -2.5 99 -0.1 NE 13 17 7 9 1025.0 - 0.0
21/05:30am -2.0 -5.6 -2.1 99 -0.1 NNE 7 9 4 5 1025.0 - 0.0
21/05:00am -1.8 -5.4 -1.9 99 0.0 NE 7 7 4 4 1025.0 - 0.0
21/04:30am -2.0 -5.6 -2.1 99 -0.1 NNE 7 9 4 5 1025.0 - 0.0
21/04:00am -1.8 -5.4 -1.9 99 0.0 N 7 7 4 4 1024.9 - 0.0
21/03:30am -2.3 -5.7 -2.4 99 -0.1 NNE 6 7 3 4 1025.0 - 0.0
21/03:00am -3.1 -5.5 -3.2 99 -0.1 CALM 0 9 0 5 1025.2 1027.2 0.0
21/02:32am -4.1 -6.7 -5.2 92 0.2 CALM 0 0 0 0 1025.4 - 0.0
21/02:30am -4.0 -6.6 -5.1 92 0.2 CALM 0 0 0 0 1025.4 - 0.0
21/02:00am -2.9 -5.4 -3.7 94 0.1 CALM 0 0 0 0 1025.3 - 0.0
21/01:30am -2.1 -4.5 -3.1 93 0.3 CALM 0 0 0 0 1025.5 - 0.0
21/01:00am -1.0 -3.2 -1.7 95 0.2 CALM 0 0 0 0 1025.5 - 0.0
21/12:30am -0.3 -2.3 -0.4 99 0.0 CALM 0 0 0 0 1025.6 - 0.0
21/12:00am -0.5 -2.6 -0.6 99 0.0 CALM 0 0 0 0 1025.8 1027.9 0.0
 
Date/Time
EST
Temp
°C
App
Temp
°C
Dew
Point
Rel
Hum
%
Delta-T
°C
Wind Press
QNH
hPa
Press
MSL
hPa
Rain
since 9 am
mm
Dir
 
Spd
km/h
Gust
km/h
Spd
kts
Gust
kts
20/11:30pm -0.8 -2.9 -1.1 98 0.1 CALM 0 0 0 0 1026.1 - 0.0
20/11:00pm -1.6 -3.9 -2.0 97 0.1 CALM 0 0 0 0 1026.3 - 0.0
20/10:30pm -3.0 -5.9 -4.3 91 0.3 SW 2 7 1 4 1026.3 - 0.0
20/10:00pm -1.4 -5.0 -2.2 94 0.2 WSW 7 7 4 4 1026.2 - 0.0
20/09:30pm -1.5 -5.1 -2.1 96 0.1 SSW 7 9 4 5 1026.1 - 0.0
20/09:00pm -1.9 -5.6 -2.9 93 0.3 SSW 7 9 4 5 1026.3 1028.3 0.0
20/08:30pm -2.2 -5.3 -3.0 94 0.2 WSW 4 7 2 4 1026.3 - 0.0
20/08:00pm -1.8 -4.3 -3.7 87 0.6 CALM 0 2 0 1 1026.1 - 0.0
20/07:30pm 0.6 -3.7 -1.5 86 0.8 SW 11 13 6 7 1025.7 - 0.0
20/07:00pm 1.0 -3.2 -1.1 86 0.8 SW 11 13 6 7 1025.6 - 0.0
20/06:30pm 0.2 -3.7 -1.7 87 0.7 WSW 9 11 5 6 1025.5 - 0.0
20/06:00pm 1.9 -1.6 -1.0 81 1.1 WSW 7 9 4 5 1025.2 1027.2 0.0
20/05:30pm 1.8 -1.7 -1.4 79 1.2 SW 7 7 4 4 1025.1 - 0.0
20/05:00pm 3.4 -0.7 0.1 79 1.3 S 11 11 6 6 1024.9 - 0.0
20/04:30pm 5.6 1.6 0.8 71 2.0 S 11 13 6 7 1024.6 - 0.0
20/04:00pm 6.9 2.8 0.1 62 2.8 SSW 11 15 6 8 1024.6 - 0.0
20/03:30pm 7.3 3.1 -0.6 57 3.2 SSW 11 13 6 7 1024.6 - 0.0
20/03:00pm 7.4 3.9 -1.0 55 3.4 SSW 7 11 4 6 1024.5 1026.5 0.0
20/02:30pm 7.0 3.1 -1.4 55 3.4 S 9 13 5 7 1024.6 - 0.0
20/02:00pm 7.0 4.5 -0.7 58 3.1 SE 2 7 1 4 1024.8 - 0.0
20/01:30pm 6.8 4.3 -1.3 56 3.2 SSW 2 6 1 3 1025.0 - 0.0
20/01:00pm 6.4 4.4 -0.3 62 2.7 CALM 0 9 0 5 1025.3 - 0.0
20/12:30pm 5.0 1.8 -0.4 68 2.2 SSW 6 9 3 5 1025.8 - 0.0
20/12:00pm 4.2 0.9 0.0 74 1.7 SSW 7 13 4 7 1026.3 1028.3 0.0
20/11:30am 4.4 2.0 -0.2 72 1.8 SSE 2 9 1 5 1026.7 - 0.0
20/11:00am 2.8 0.0 -0.6 78 1.3 W 4 13 2 7 1027.2 - 0.0
20/10:59am 2.6 0.0 -1.4 75 1.5 W 2 13 1 7 1027.2 - 0.0
20/10:30am 1.6 -2.3 -1.5 80 1.2 SSW 9 11 5 6 1027.4 - 0.0
20/10:00am 1.5 -2.3 -0.7 85 0.8 SSW 9 15 5 8 1027.6 - 0.0
20/09:30am 1.5 -3.0 -0.4 87 0.7 SSW 13 17 7 9 1027.5 - 0.0
20/09:00am 1.1 -3.1 -0.8 87 0.7 W 11 15 6 8 1027.5 1029.6 0.0
20/08:30am 0.9 -3.6 -0.5 90 0.5 W 13 17 7 9 1027.2 - 0.0
20/08:00am 0.4 -3.8 -0.6 93 0.4 SW 11 17 6 9 1026.8 - 0.0
20/07:30am 0.1 -4.5 -0.9 93 0.4 SW 13 17 7 9 1026.6 - 0.0
20/07:00am 0.3 -4.6 -0.7 93 0.4 SW 15 20 8 11 1026.5 - 0.0
20/06:30am 0.1 -4.1 -0.6 95 0.3 SW 11 15 6 8 1026.1 - 0.0
20/06:00am -0.2 -4.0 -0.9 95 0.3 WSW 9 13 5 7 1025.7 1027.8 0.0
20/05:30am 0.2 -4.0 -0.9 92 0.4 SW 11 15 6 8 1025.4 - 0.0
20/05:00am 1.1 -3.8 -0.2 91 0.5 SW 15 19 8 10 1025.4 - 0.0
20/04:30am 1.0 -2.2 0.9 99 0.0 SSW 7 20 4 11 1025.3 - 0.0
20/04:00am -0.6 -2.8 -1.3 95 0.2 CALM 0 0 0 0 1025.4 - 0.0
20/03:30am -0.8 -3.0 -1.9 92 0.4 CALM 0 0 0 0 1025.3 - 0.0
20/03:00am 0.1 -2.8 -1.2 91 0.5 SSW 4 11 2 6 1025.6 1027.7 0.0
20/02:30am 0.7 -3.8 -0.6 91 0.5 SW 13 15 7 8 1025.7 - 0.0
20/02:00am 0.7 -4.6 -0.3 93 0.4 SW 17 20 9 11 1025.7 - 0.0
20/01:30am 1.0 -4.7 -0.5 90 0.6 WSW 19 22 10 12 1025.7 - 0.0
20/01:18am 1.0 -4.6 -0.3 91 0.5 WSW 19 22 10 12 1025.7 - 0.0
20/01:00am 0.6 -5.1 -0.4 93 0.4 SW 19 22 10 12 1026.0 - 0.0
20/12:30am 1.2 -4.9 0.2 93 0.4 SW 22 28 12 15 1026.1 - 0.0
20/12:00am 1.5 -5.7 0.6 94 0.4 SW 28 32 15 17 1026.1 1028.1 0.0
 
Date/Time
EST
Temp
°C
App
Temp
°C
Dew
Point
Rel
Hum
%
Delta-T
°C
Wind Press
QNH
hPa
Press
MSL
hPa
Rain
since 9 am
mm
Dir
 
Spd
km/h
Gust
km/h
Spd
kts
Gust
kts
19/11:30pm 2.0 -5.2 0.8 92 0.5 SW 28 33 15 18 1026.3 - 0.0

Other Formats:

Comma delimited format used in spreadsheet applications
http://www.bom.gov.au/fwo/IDN60801/IDN60801.94921.axf

JavaScript Object Notation format (JSON) in row-major order
http://www.bom.gov.au/fwo/IDN60801/IDN60801.94921.json